createdAt,value
2019-02-06T00:00:58.549Z,2.73
2019-02-06T00:04:07.347Z,2.77
2019-02-06T00:07:16.381Z,2.72
2019-02-06T00:10:25.033Z,2.73
2019-02-06T00:13:34.566Z,2.71
2019-02-06T00:16:53.862Z,2.81
2019-02-06T00:20:02.615Z,2.72
2019-02-06T00:23:11.429Z,2.75
2019-02-06T00:26:20.032Z,2.85
2019-02-06T00:29:28.870Z,2.97
2019-02-06T00:32:38.352Z,3.03
2019-02-06T00:35:57.185Z,3.16
2019-02-06T00:39:16.524Z,3.27
2019-02-06T00:42:25.123Z,3.27
2019-02-06T00:45:44.656Z,3.41
2019-02-06T00:48:53.465Z,3.38
2019-02-06T00:52:02.062Z,3.41
2019-02-06T00:55:12.392Z,3.50
2019-02-06T00:58:20.974Z,3.66
2019-02-06T01:01:29.546Z,3.68
2019-02-06T01:04:38.042Z,3.70
2019-02-06T01:07:56.915Z,3.80
2019-02-06T01:11:05.489Z,3.68
2019-02-06T01:14:14.094Z,3.75
2019-02-06T01:17:25.777Z,3.87
2019-02-06T01:20:33.090Z,3.93
2019-02-06T01:23:41.720Z,3.94
2019-02-06T01:26:50.332Z,3.98
2019-02-06T01:29:58.970Z,3.94
2019-02-06T01:33:18.214Z,4.13
2019-02-06T01:36:26.890Z,4.07
2019-02-06T01:39:35.520Z,4.13
2019-02-06T01:42:44.097Z,4.21
2019-02-06T01:45:52.732Z,4.20
2019-02-06T01:49:01.329Z,4.20
2019-02-06T01:52:09.928Z,4.24
2019-02-06T01:55:28.787Z,4.32
2019-02-06T01:58:37.281Z,4.27
2019-02-06T02:01:45.905Z,4.21
2019-02-06T02:04:54.673Z,4.26
2019-02-06T02:08:03.323Z,4.24
2019-02-06T02:11:11.886Z,4.36
2019-02-06T02:14:20.456Z,4.37
2019-02-06T02:17:29.338Z,4.37
2019-02-06T02:20:48.171Z,4.37
2019-02-06T02:23:56.765Z,4.38
2019-02-06T02:27:05.394Z,4.34
2019-02-06T02:30:22.786Z,4.27
2019-02-06T02:33:45.480Z,4.49
2019-02-06T02:36:54.365Z,4.48
2019-02-06T02:40:02.934Z,4.36
2019-02-06T02:43:11.490Z,4.44
2019-02-06T02:46:20.114Z,4.43
2019-02-06T02:49:28.717Z,4.37
2019-02-06T02:52:37.414Z,4.39
2019-02-06T02:55:46.146Z,4.35
2019-02-06T02:58:54.693Z,4.44
2019-02-06T03:02:47.857Z,4.47
2019-02-06T03:05:56.778Z,4.31
2019-02-06T03:09:12.225Z,4.32
2019-02-06T03:12:20.761Z,4.39
2019-02-06T03:15:29.466Z,4.37
2019-02-06T03:18:48.153Z,4.36
2019-02-06T03:21:56.757Z,4.42
2019-02-06T03:25:06.461Z,4.45
2019-02-06T03:28:25.105Z,4.48
2019-02-06T03:31:33.698Z,4.37
2019-02-06T03:34:42.199Z,4.30
2019-02-06T03:37:51.303Z,4.35
2019-02-06T03:40:59.920Z,4.36
2019-02-06T03:44:08.600Z,3.98
2019-02-06T03:47:17.172Z,3.84
2019-02-06T03:50:25.850Z,4.00
2019-02-06T03:53:36.001Z,4.01
2019-02-06T03:56:54.964Z,4.16
2019-02-06T04:00:03.487Z,4.08
2019-02-06T04:03:12.442Z,4.08
2019-02-06T04:06:21.236Z,4.17
2019-02-06T04:09:29.811Z,4.05
2019-02-06T04:12:38.488Z,3.84
2019-02-06T04:15:47.173Z,3.92
2019-02-06T04:18:54.272Z,3.95
2019-02-06T04:22:02.916Z,3.80
2019-02-06T04:25:12.018Z,3.85
2019-02-06T04:28:20.519Z,3.90
2019-02-06T04:31:29.137Z,3.65
2019-02-06T04:34:40.201Z,3.81
2019-02-06T04:37:48.896Z,3.87
2019-02-06T04:40:57.415Z,3.87
2019-02-06T04:44:06.215Z,3.80
2019-02-06T04:47:14.828Z,3.84
2019-02-06T04:50:23.582Z,3.84
2019-02-06T04:53:32.173Z,3.85
2019-02-06T04:56:51.086Z,3.80
2019-02-06T04:59:59.604Z,3.75
2019-02-06T05:03:08.153Z,3.60
2019-02-06T05:06:16.842Z,3.63
2019-02-06T05:09:25.332Z,3.69
2019-02-06T05:12:33.984Z,3.75
2019-02-06T05:15:43.022Z,3.66
2019-02-06T05:18:51.559Z,3.71
2019-02-06T05:22:10.409Z,3.55
2019-02-06T05:25:18.891Z,3.49
2019-02-06T05:28:27.770Z,3.58
2019-02-06T05:31:36.271Z,3.54
2019-02-06T05:34:44.870Z,3.39
2019-02-06T05:37:53.497Z,3.52
2019-02-06T05:41:02.449Z,3.51
2019-02-06T05:44:10.949Z,3.49
2019-02-06T05:47:29.854Z,3.59
2019-02-06T05:50:38.444Z,3.51
2019-02-06T05:53:47.417Z,3.46
2019-02-06T05:56:56.111Z,3.43
2019-02-06T06:00:06.224Z,3.41
2019-02-06T06:03:14.729Z,3.38
2019-02-06T06:06:23.469Z,3.43
2019-02-06T06:09:32.065Z,3.42
2019-02-06T06:12:40.776Z,3.37
2019-02-06T06:15:49.491Z,3.32
2019-02-06T06:19:08.313Z,3.48
2019-02-06T06:22:16.902Z,3.53
2019-02-06T06:25:25.746Z,3.65
2019-02-06T06:28:34.341Z,3.62
2019-02-06T06:31:42.839Z,3.58
2019-02-06T06:34:52.890Z,3.35
2019-02-06T06:38:03.039Z,3.40
2019-02-06T06:41:22.215Z,3.44
2019-02-06T06:44:30.938Z,3.48
2019-02-06T06:47:39.578Z,3.49
2019-02-06T06:50:48.200Z,3.58
2019-02-06T06:53:56.810Z,3.52
2019-02-06T06:57:06.472Z,3.40
2019-02-06T07:00:28.561Z,3.51
2019-02-06T07:03:37.036Z,3.59
2019-02-06T07:06:46.512Z,3.57
2019-02-06T07:10:07.000Z,3.64
2019-02-06T07:13:15.536Z,3.63
2019-02-06T07:16:24.231Z,3.56
2019-02-06T07:19:32.740Z,3.71
2019-02-06T07:22:41.331Z,3.59
2019-02-06T07:26:00.277Z,3.74
2019-02-06T07:29:08.858Z,3.74
2019-02-06T07:32:17.442Z,3.71
2019-02-06T07:35:26.169Z,3.73
2019-02-06T07:38:34.779Z,3.76
2019-02-06T07:41:43.380Z,3.87
2019-02-06T07:44:52.032Z,3.77
2019-02-06T07:48:00.679Z,3.85
2019-02-06T07:51:19.564Z,3.94
2019-02-06T07:54:28.137Z,4.01
2019-02-06T07:57:36.821Z,3.87
2019-02-06T08:00:45.429Z,3.99
2019-02-06T08:03:54.000Z,3.95
2019-02-06T08:07:02.901Z,4.13
2019-02-06T08:10:19.046Z,4.00
2019-02-06T08:13:38.153Z,4.02
2019-02-06T08:16:46.821Z,4.08
2019-02-06T08:19:55.491Z,4.13
2019-02-06T08:23:02.507Z,4.23
2019-02-06T08:26:11.149Z,4.37
2019-02-06T08:29:19.799Z,4.34
2019-02-06T08:32:28.405Z,4.30
2019-02-06T08:35:37.204Z,4.26
2019-02-06T08:38:47.637Z,4.34
2019-02-06T08:42:06.237Z,4.42
2019-02-06T08:45:16.636Z,4.44
2019-02-06T08:48:25.299Z,4.33
2019-02-06T08:51:33.414Z,4.40
2019-02-06T08:54:41.997Z,4.46
2019-02-06T08:58:01.267Z,4.39
2019-02-06T09:01:20.145Z,4.49
2019-02-06T09:04:28.793Z,4.44
2019-02-06T09:07:37.497Z,4.51
2019-02-06T09:10:46.452Z,4.52
2019-02-06T09:13:54.949Z,4.58
2019-02-06T09:17:03.611Z,4.56
2019-02-06T09:20:16.670Z,4.62
2019-02-06T09:23:25.726Z,4.52
2019-02-06T09:26:36.283Z,4.61
2019-02-06T09:29:54.700Z,4.79
2019-02-06T09:33:03.639Z,4.76
2019-02-06T09:36:12.229Z,4.86
2019-02-06T09:39:21.776Z,4.74
2019-02-06T09:42:30.396Z,4.77
2019-02-06T09:45:49.377Z,4.60
2019-02-06T09:48:57.977Z,4.78
2019-02-06T09:52:06.575Z,4.74
2019-02-06T09:55:15.471Z,4.82
2019-02-06T09:58:23.983Z,5.03
2019-02-06T10:01:32.491Z,5.13
2019-02-06T10:04:40.980Z,5.14
2019-02-06T10:08:00.059Z,5.34
2019-02-06T10:11:08.653Z,5.49
2019-02-06T10:14:17.252Z,5.62
2019-02-06T10:17:25.946Z,5.66
2019-02-06T10:20:50.375Z,5.90
2019-02-06T10:23:58.990Z,6.03
2019-02-06T10:27:08.868Z,6.05
2019-02-06T10:30:26.718Z,6.20
2019-02-06T10:33:35.463Z,6.24
2019-02-06T10:36:44.185Z,6.30
2019-02-06T10:39:52.883Z,6.28
2019-02-06T10:43:01.724Z,6.38
2019-02-06T10:46:10.643Z,6.50
2019-02-06T10:49:19.329Z,6.61
2019-02-06T10:52:29.261Z,6.62
2019-02-06T10:55:38.398Z,6.72
2019-02-06T10:58:46.957Z,6.72
2019-02-06T11:01:55.556Z,6.73
2019-02-06T11:05:14.989Z,6.85
2019-02-06T11:08:33.694Z,6.78
2019-02-06T11:11:42.186Z,6.76
2019-02-06T11:14:50.781Z,6.79
2019-02-06T11:17:59.451Z,6.64
2019-02-06T11:21:08.138Z,6.59
2019-02-06T11:24:17.206Z,6.53
2019-02-06T11:27:25.768Z,6.51
2019-02-06T11:30:34.844Z,6.53
2019-02-06T11:33:43.398Z,6.57
2019-02-06T11:36:51.981Z,6.64
2019-02-06T11:40:00.552Z,6.66
2019-02-06T11:43:19.473Z,6.45
2019-02-06T11:46:28.116Z,6.34
2019-02-06T11:49:40.348Z,6.32
2019-02-06T11:52:49.531Z,6.37
2019-02-06T11:56:08.535Z,6.34
2019-02-06T11:59:17.023Z,6.38
2019-02-06T12:02:36.668Z,6.36
2019-02-06T12:05:47.124Z,6.43
2019-02-06T12:08:55.730Z,6.37
2019-02-06T12:12:04.328Z,6.32
2019-02-06T12:15:17.086Z,6.23
2019-02-06T12:18:25.876Z,6.09
2019-02-06T12:21:44.714Z,6.12
2019-02-06T12:24:53.320Z,5.99
2019-02-06T12:28:04.957Z,6.03
2019-02-06T12:31:12.275Z,6.01
2019-02-06T12:34:20.770Z,5.96
2019-02-06T12:37:29.384Z,5.87
2019-02-06T12:40:38.090Z,5.92
2019-02-06T12:43:47.128Z,5.85
2019-02-06T12:46:55.733Z,5.94
2019-02-06T12:50:15.220Z,5.91
2019-02-06T12:53:33.971Z,5.95
2019-02-06T12:56:42.633Z,5.78
2019-02-06T12:59:51.443Z,5.77
2019-02-06T13:03:00.501Z,5.73
2019-02-06T13:06:19.678Z,5.81
2019-02-06T13:09:30.117Z,5.74
2019-02-06T13:12:38.761Z,5.64
2019-02-06T13:15:47.616Z,5.65
2019-02-06T13:18:56.233Z,5.66
2019-02-06T13:22:04.771Z,5.72
2019-02-06T13:25:14.887Z,5.69
2019-02-06T13:28:23.480Z,5.70
2019-02-06T13:31:32.053Z,5.69
2019-02-06T13:34:41.005Z,5.69
2019-02-06T13:37:59.949Z,5.69
2019-02-06T13:41:08.653Z,5.67
2019-02-06T13:44:17.303Z,5.68
2019-02-06T13:47:25.984Z,5.73
2019-02-06T13:50:35.222Z,5.72
2019-02-06T13:53:43.819Z,5.75
2019-02-06T13:56:52.582Z,5.72
2019-02-06T14:00:02.162Z,5.73
2019-02-06T14:03:11.030Z,5.85
2019-02-06T14:06:19.806Z,5.80
2019-02-06T14:09:28.300Z,5.82
2019-02-06T14:12:37.174Z,5.80
2019-02-06T14:15:56.043Z,5.97
2019-02-06T14:19:05.735Z,5.93
2019-02-06T14:22:14.294Z,5.96
2019-02-06T14:26:05.280Z,5.95
2019-02-06T14:30:06.947Z,6.00
2019-02-06T14:34:26.864Z,5.93
2019-02-06T14:38:27.462Z,5.87
2019-02-06T14:42:21.021Z,6.02
2019-02-06T14:47:01.322Z,6.08
2019-02-06T14:50:54.901Z,6.10
2019-02-06T14:54:45.723Z,6.04
2019-02-06T14:58:55.622Z,6.12
2019-02-06T15:03:22.742Z,6.19
2019-02-06T15:07:01.601Z,6.13
2019-02-06T15:11:34.549Z,6.06
2019-02-06T15:15:26.939Z,6.12
2019-02-06T15:19:15.998Z,6.15
2019-02-06T15:23:33.642Z,6.11
2019-02-06T15:27:53.949Z,6.08
2019-02-06T15:31:49.702Z,6.17
2019-02-06T15:36:02.613Z,6.26
2019-02-06T15:40:27.976Z,6.32
2019-02-06T15:44:34.493Z,6.28
2019-02-06T15:48:17.945Z,6.12
2019-02-06T15:52:31.496Z,6.08
2019-02-06T15:56:22.226Z,6.06
2019-02-06T16:00:14.694Z,6.04
2019-02-06T16:04:22.772Z,5.99
2019-02-06T16:08:46.247Z,5.97
2019-02-06T16:12:52.812Z,5.99
2019-02-06T16:16:39.852Z,5.97
2019-02-06T16:20:39.027Z,5.95
2019-02-06T16:24:33.774Z,6.06
2019-02-06T16:28:48.662Z,6.03
2019-02-06T16:32:33.850Z,6.09
2019-02-06T16:36:30.775Z,6.09
2019-02-06T16:40:47.971Z,6.14
2019-02-06T16:45:02.807Z,6.24
2019-02-06T16:48:53.501Z,6.00
2019-02-06T16:53:00.059Z,6.09
2019-02-06T16:57:15.056Z,6.08
2019-02-06T17:01:19.780Z,6.02
2019-02-06T17:05:08.257Z,6.03
2019-02-06T17:09:33.172Z,6.05
2019-02-06T17:13:37.991Z,6.01
2019-02-06T17:17:24.804Z,6.06
2019-02-06T17:21:09.900Z,5.95
2019-02-06T17:25:31.033Z,6.00
2019-02-06T17:29:33.261Z,5.99
2019-02-06T17:33:35.246Z,5.95
2019-02-06T17:38:01.104Z,6.00
2019-02-06T17:41:55.396Z,5.90
2019-02-06T17:45:37.729Z,5.94
2019-02-06T17:49:12.524Z,5.98
2019-02-06T17:53:26.763Z,6.07
2019-02-06T17:56:35.413Z,6.13
2019-02-06T17:59:44.267Z,6.07
2019-02-06T18:02:52.932Z,5.99
2019-02-06T18:06:14.588Z,6.03
2019-02-06T18:09:23.025Z,6.03
2019-02-06T18:12:31.660Z,6.00
2019-02-06T18:15:40.581Z,6.00
2019-02-06T18:18:49.235Z,6.00
2019-02-06T18:21:57.922Z,6.09
2019-02-06T18:25:08.867Z,6.16
2019-02-06T18:28:17.730Z,6.17
2019-02-06T18:31:26.390Z,6.17
2019-02-06T18:34:36.177Z,6.20
2019-02-06T18:37:49.264Z,6.16
2019-02-06T18:40:57.891Z,6.14
2019-02-06T18:44:06.980Z,6.14
2019-02-06T18:47:15.689Z,6.20
2019-02-06T18:50:37.573Z,6.21
2019-02-06T18:53:47.005Z,6.09
2019-02-06T18:56:55.747Z,6.04
2019-02-06T19:00:05.376Z,6.07
2019-02-06T19:03:21.063Z,6.09
2019-02-06T19:06:29.782Z,6.06
2019-02-06T19:09:38.336Z,6.14
2019-02-06T19:12:48.925Z,6.10
2019-02-06T19:15:57.315Z,6.17
2019-02-06T19:19:06.763Z,6.05
2019-02-06T19:22:15.313Z,6.11
2019-02-06T19:25:24.216Z,6.10
2019-02-06T19:28:32.923Z,6.11
2019-02-06T19:31:41.511Z,6.18
2019-02-06T19:34:50.180Z,6.06
2019-02-06T19:37:58.908Z,6.09
2019-02-06T19:41:07.473Z,6.05
2019-02-06T19:44:26.325Z,6.11
2019-02-06T19:47:34.840Z,6.11
2019-02-06T19:50:43.888Z,6.09
2019-02-06T19:53:52.565Z,6.08
2019-02-06T19:57:01.281Z,6.12
2019-02-06T20:00:15.968Z,6.12
2019-02-06T20:03:24.527Z,6.02
2019-02-06T20:06:43.360Z,6.07
2019-02-06T20:09:51.942Z,6.12
2019-02-06T20:13:10.661Z,6.08
2019-02-06T20:16:11.373Z,6.13
2019-02-06T20:19:20.741Z,6.24
2019-02-06T20:22:30.591Z,6.23
2019-02-06T20:25:39.269Z,6.12
2019-02-06T20:28:47.848Z,6.18
2019-02-06T20:31:56.310Z,6.17
2019-02-06T20:35:06.385Z,6.08
2019-02-06T20:38:14.942Z,6.09
2019-02-06T20:41:34.893Z,6.16
2019-02-06T20:44:43.489Z,6.14
2019-02-06T20:47:52.527Z,6.20
2019-02-06T20:51:01.194Z,6.21
2019-02-06T20:54:09.773Z,6.22
2019-02-06T20:57:18.423Z,6.20
2019-02-06T21:00:38.775Z,6.25
2019-02-06T21:03:47.357Z,6.19
2019-02-06T21:06:55.964Z,6.22
2019-02-06T21:10:05.139Z,6.23
2019-02-06T21:13:13.687Z,6.19
2019-02-06T21:16:22.369Z,6.23
2019-02-06T21:19:31.007Z,6.22
2019-02-06T21:22:39.466Z,6.23
2019-02-06T21:25:48.135Z,6.24
2019-02-06T21:28:56.803Z,6.36
2019-02-06T21:32:15.705Z,6.41
2019-02-06T21:35:24.355Z,6.43
2019-02-06T21:38:33.105Z,6.38
2019-02-06T21:41:41.760Z,6.12
2019-02-06T21:44:50.419Z,6.28
2019-02-06T21:47:59.023Z,6.31
2019-02-06T21:51:07.713Z,6.35
2019-02-06T21:54:16.291Z,6.26
2019-02-06T21:57:35.146Z,6.38
2019-02-06T22:00:45.187Z,6.48
2019-02-06T22:03:54.167Z,6.43
2019-02-06T22:07:02.666Z,6.36
2019-02-06T22:10:12.525Z,6.42
2019-02-06T22:13:31.201Z,6.49
2019-02-06T22:16:39.898Z,6.46
2019-02-06T22:19:48.404Z,6.46
2019-02-06T22:22:57.073Z,6.39
2019-02-06T22:26:05.872Z,6.46
2019-02-06T22:29:14.503Z,6.40
2019-02-06T22:32:23.090Z,6.34
2019-02-06T22:35:31.710Z,6.35
2019-02-06T22:38:50.633Z,6.54
2019-02-06T22:41:59.214Z,6.47
2019-02-06T22:45:10.910Z,6.46
2019-02-06T22:48:19.408Z,6.49
2019-02-06T22:51:28.068Z,6.54
2019-02-06T22:54:36.631Z,6.56
2019-02-06T22:57:55.670Z,6.71
2019-02-06T23:01:31.807Z,6.67
2019-02-06T23:04:50.873Z,6.71
2019-02-06T23:07:59.514Z,6.60
2019-02-06T23:11:08.493Z,6.62
2019-02-06T23:14:19.822Z,6.71
2019-02-06T23:17:27.134Z,6.62
2019-02-06T23:20:35.788Z,6.57
2019-02-06T23:23:44.351Z,6.64
2019-02-06T23:26:52.994Z,6.61
2019-02-06T23:30:01.949Z,6.74
2019-02-06T23:33:10.533Z,6.69
2019-02-06T23:36:29.530Z,6.65
2019-02-06T23:39:37.983Z,6.57
2019-02-06T23:42:46.571Z,6.44
2019-02-06T23:45:55.261Z,6.50
2019-02-06T23:49:03.827Z,6.55
2019-02-06T23:52:12.312Z,6.50
2019-02-06T23:55:31.284Z,6.69
2019-02-06T23:58:50.548Z,6.66
